Airfield :
LOGIN :

Register | Disclaimer

   EN    FR    IT 

 










Legend :    VFR   Marginal VFR   IFR   Intensive IFR   Very Intensive IFR
Visi :
Ceiling :
>= 8 km
>= 3000ft
5 to 8 km
1000 to 3000 ft
1500m to 5 km
500 to 1000 ft
800 to 1500m
200 to 500 ft
< 800m
< 200 ft
Symbols :   Thunderstorms  Fog  Heavy snow  Heavy precipitations  Wind > 20 kt
SIGMETs :     Misc.  Thunderstorms  Icing  Turbulence  Mountain Waves  Volcanic Ashes







- Airport Elevation : 1906 ft
- IATA code : INN


LOWI - Innsbruck

CURRENT METAR :
  • 281020Z 29006KT 260V320 9999 FEW040 SCT070 BKN120 19/15 Q1005 NOSIG

EXPIRED METARs :
  • 280950Z 29007KT 260V320 9999 -SHRA FEW020 SCT070 BKN100 17/14 Q1005 WS R26 NOSIG
  • 280920Z 26015KT 9999 -SHRA FEW050 SCT070 FEW070TCU BKN100 18/13 Q1005 WS R26 NOSIG
  • 280850Z 21009G21KT 150V270 9999 -SHRA FEW040 SCT060 FEW060TCU BKN090 21/12 Q1004 WS R26 NOSIG
  • 280820Z 20010G20KT 140V260 9999 SCT060 FEW060CB BKN090 21/12 Q1004 WS R26 NOSIG
  • 280750Z 24015G25KT 190V270 9999 SCT060 FEW070CB BKN090 22/13 Q1003 WS R26 BECMG FM0900 12015G25KT

TAF AMD TAF LOWI
Valid from the 28 at 09:00 until the 29 at 06:00 UTC


280904Z 2809/2906 27008KT 9999 FEW060 SCT120 BKN300 TX26/2813Z TN14/2905Z
TEMPO 2809/2810 27015G30KT
BECMG 2810/2812 11012G25KT
TEMPO 2811/2819 13017G35KT
PROB30
TEMPO 2814/2818 VRB15G25KT TSRA SCT060CB BKN080
BECMG 2819/2821 27008KT
TEMPO 2900/2906 4000 TSRA SCT020 BKN050CB
No reported NOTAMs for that airfield.



MET'MAP, your aeronautical weather chart ! - Copyright ORBIFLY December 2007 - Disclaimer

ORBIFLY MET'MAP TEAM :

Programming & Development : Alexandra Zaïnal
Concept & Development : Baudouin d'Aumeries
Co-Development & Prog : Marc-Olivier Méhu
Technical & hardware support : Manuel Goepfert

Contact : metmap@orbifly.com




SOURCES & CREDITS :

   NOAA